Time;durP1;ratioP1;P1;durP2;ratioP2;P2;SDS_P1;SDS_P2;PMS_P1;PMS_P2;Temp;Humidity;BMP_temperature;BMP_pressure;BME280_temperature;BME280_humidity;BME280_pressure;Samples;Min_cycle;Max_cycle;Signal;HPM_P1;HPM_P2
2021/10/28 00:13:08;;;;;;;;;13.00;12.75;;;;;15.01;62.12;101352.22;2083552;28;47512;-50
2021/10/28 00:14:09;;;;;;;;;12.75;12.25;;;;;15.01;61.73;101346.88;2091309;28;46896;-52
2021/10/28 00:15:16;;;;;;;;;12.00;12.00;;;;;15.00;61.72;101345.13;2091519;28;45433;-51
2021/10/28 00:16:22;;;;;;;;;12.50;12.50;;;;;15.00;62.01;101341.59;2091993;28;47643;-52
2021/10/28 00:17:40;;;;;;;;;14.80;14.80;;;;;14.99;62.03;101343.38;2091516;28;48148;-51
2021/10/28 00:18:44;;;;;;;;;15.20;15.20;;;;;14.99;61.90;101340.72;2089110;28;47407;-53
2021/10/28 00:19:45;;;;;;;;;12.25;11.00;;;;;14.99;61.94;101346.06;2091651;28;47219;-49
2021/10/28 00:20:45;;;;;;;;;15.50;14.50;;;;;14.99;62.20;101337.13;2082466;28;48836;-52
2021/10/28 00:21:46;;;;;;;;;11.67;11.67;;;;;14.98;62.31;101338.91;2080242;28;47751;-49
2021/10/28 00:22:47;;;;;;;;;15.00;15.00;;;;;14.98;62.46;101333.56;2083608;28;45938;-50
2021/10/28 00:23:50;;;;;;;;;12.00;12.00;;;;;14.98;62.00;101330.91;2082068;28;47225;-53
2021/10/28 00:24:50;;;;;;;;;14.75;14.25;;;;;14.97;62.35;101329.16;2083108;28;48098;-52
2021/10/28 00:25:51;;;;;;;;;15.00;13.00;;;;;14.97;62.13;101330.94;2091619;28;47204;-53
2021/10/28 00:26:51;;;;;;;;;13.00;13.00;;;;;14.97;62.55;101326.47;2091771;28;48164;-49
2021/10/28 00:27:52;;;;;;;;;12.75;12.75;;;;;14.97;62.37;101329.16;2091427;28;47340;-52
2021/10/28 00:28:58;;;;;;;;;16.00;15.50;;;;;14.95;62.23;101314.97;2082742;28;47488;-50
2021/10/28 00:29:58;;;;;;;;;14.80;14.00;;;;;14.96;62.20;101324.75;2083331;28;47298;-49
2021/10/28 00:30:58;;;;;;;;;14.33;14.33;;;;;14.96;62.44;101318.50;2082729;28;48318;-49
2021/10/28 00:31:59;;;;;;;;;16.25;14.25;;;;;14.95;62.37;101312.28;2082617;28;47263;-52
2021/10/28 00:33:00;;;;;;;;;14.33;13.00;;;;;14.96;62.38;101321.19;2087438;28;46759;-53
2021/10/28 00:34:01;;;;;;;;;14.00;14.00;;;;;14.97;62.11;101309.56;2091386;28;47867;-50
2021/10/28 00:35:01;;;;;;;;;14.25;13.75;;;;;14.96;62.51;101318.50;2093729;28;47404;-50
2021/10/28 00:36:04;;;;;;;;;16.00;16.00;;;;;14.96;62.16;101316.72;2091380;28;48406;-54
2021/10/28 00:37:05;;;;;;;;;14.40;13.20;;;;;14.95;62.15;101306.94;2091784;28;47383;-52
2021/10/28 00:38:06;;;;;;;;;17.00;15.75;;;;;14.96;62.52;101307.81;2082359;28;47712;-52
2021/10/28 00:39:08;;;;;;;;;14.00;14.00;;;;;14.94;62.48;101304.31;2082629;28;47300;-52
2021/10/28 00:40:10;;;;;;;;;14.75;14.50;;;;;14.95;62.09;101309.63;2090870;28;47277;-51
2021/10/28 00:41:11;;;;;;;;;18.40;16.60;;;;;14.94;62.59;101307.00;2091498;28;48272;-49
2021/10/28 00:42:13;;;;;;;;;14.75;14.75;;;;;14.92;62.44;101301.72;2089022;28;45339;-52
2021/10/28 00:43:13;;;;;;;;;13.80;13.80;;;;;14.93;62.12;101305.25;2081911;28;48072;-53
2021/10/28 00:44:14;;;;;;;;;13.33;13.33;;;;;14.92;62.11;101308.84;2074701;28;48259;-54
2021/10/28 00:45:15;;;;;;;;;14.67;13.33;;;;;14.92;62.32;101303.50;2083085;28;47346;-52
2021/10/28 00:46:17;;;;;;;;;12.67;12.67;;;;;14.91;62.20;101302.63;2088540;28;47082;-54
2021/10/28 00:47:18;;;;;;;;;14.60;14.60;;;;;14.91;62.39;101307.97;2091303;28;47465;-51
2021/10/28 00:48:19;;;;;;;;;13.67;13.67;;;;;14.91;62.60;101299.09;2091710;28;47329;-52
2021/10/28 00:49:20;;;;;;;;;15.25;15.25;;;;;14.90;62.52;101300.00;2082389;28;48690;-51
2021/10/28 00:50:21;;;;;;;;;16.75;15.75;;;;;14.89;62.28;101296.47;2082165;28;47235;-59
2021/10/28 00:51:24;;;;;;;;;13.00;13.00;;;;;14.90;62.68;101300.88;2090796;28;48343;-50
2021/10/28 00:52:25;;;;;;;;;15.75;15.75;;;;;14.89;62.34;101299.13;2091794;28;45339;-52
2021/10/28 00:53:26;;;;;;;;;18.33;15.00;;;;;14.90;62.43;101297.34;2082198;28;48120;-53
2021/10/28 00:54:28;;;;;;;;;14.60;14.40;;;;;14.89;62.39;101298.25;2074580;28;48127;-53
2021/10/28 00:55:28;;;;;;;;;19.20;18.20;;;;;14.89;62.25;101300.94;2082300;28;47182;-51
2021/10/28 00:56:32;;;;;;;;;20.00;18.50;;;;;14.89;62.65;101296.47;2091597;28;47344;-58
2021/10/28 00:57:33;;;;;;;;;15.50;15.00;;;;;14.88;62.61;101296.50;2091337;28;47407;-48
2021/10/28 00:58:35;;;;;;;;;18.00;16.33;;;;;14.88;62.57;101301.84;2082445;28;48231;-53
2021/10/28 00:59:36;;;;;;;;;20.20;16.80;;;;;14.87;62.69;101294.75;2082370;28;48045;-52
2021/10/28 01:00:36;;;;;;;;;13.50;13.50;;;;;14.87;62.42;101298.31;2082766;28;48014;-55
2021/10/28 01:01:37;;;;;;;;;16.00;14.00;;;;;14.84;62.66;101285.03;2082243;28;47553;-55
2021/10/28 01:02:37;;;;;;;;;15.00;13.75;;;;;14.85;62.83;101288.56;2091514;28;48238;-50
2021/10/28 01:03:39;;;;;;;;;14.50;13.75;;;;;14.85;62.48;101285.91;2091243;28;48025;-49
2021/10/28 01:04:41;;;;;;;;;12.40;11.40;;;;;14.85;62.56;101291.22;2090947;28;47550;-53
2021/10/28 01:05:42;;;;;;;;;15.60;14.80;;;;;14.83;62.96;101285.06;2083107;28;47030;-52
2021/10/28 01:06:45;;;;;;;;;12.40;11.60;;;;;14.83;62.37;101288.63;2074321;28;47231;-51
2021/10/28 01:07:45;;;;;;;;;17.80;14.80;;;;;14.82;62.79;101286.00;2074295;28;47478;-52
2021/10/28 01:08:46;;;;;;;;;13.00;13.00;;;;;14.81;62.81;101286.91;2083041;28;48250;-50
2021/10/28 01:09:47;;;;;;;;;15.00;13.33;;;;;14.80;63.04;101291.38;2082779;28;47082;-51
2021/10/28 01:10:50;;;;;;;;;8.00;8.00;;;;;14.81;62.34;101284.25;2076605;28;48126;-53
2021/10/28 01:11:52;;;;;;;;;14.50;14.00;;;;;14.79;62.61;101289.63;2082595;28;47103;-53
2021/10/28 01:12:53;;;;;;;;;13.75;13.50;;;;;14.79;62.59;101283.41;2082717;28;48022;-55
2021/10/28 01:13:56;;;;;;;;;14.00;14.00;;;;;14.77;62.86;101277.25;2079824;28;45418;-51
2021/10/28 01:14:58;;;;;;;;;15.50;15.50;;;;;14.79;62.94;101280.75;2091490;28;47772;-53
2021/10/28 01:15:59;;;;;;;;;13.25;12.25;;;;;14.77;62.68;101277.25;2091317;28;48078;-53
2021/10/28 01:16:59;;;;;;;;;20.33;16.67;;;;;14.77;62.84;101283.47;2091554;28;47138;-51
2021/10/28 01:18:00;;;;;;;;;17.00;17.00;;;;;14.75;62.49;101277.31;2086180;28;47763;-52
2021/10/28 01:19:00;;;;;;;;;11.33;11.33;;;;;14.75;62.91;101289.78;2083455;28;46319;-50
2021/10/28 01:20:01;;;;;;;;;13.67;13.33;;;;;14.74;62.87;101278.22;2082735;28;47435;-53
2021/10/28 01:21:03;;;;;;;;;17.50;14.75;;;;;14.75;63.10;101276.44;2082853;28;47210;-51
2021/10/28 01:22:04;;;;;;;;;13.50;11.25;;;;;14.75;62.79;101271.09;2074910;28;47218;-51
2021/10/28 01:23:06;;;;;;;;;17.60;15.80;;;;;14.74;62.83;101270.22;2087818;28;46975;-52
2021/10/28 01:24:07;;;;;;;;;16.20;14.60;;;;;14.73;62.66;101268.44;2074290;28;46684;-50
2021/10/28 01:25:08;;;;;;;;;16.80;15.40;;;;;14.72;62.47;101266.69;2074035;28;46679;-49
2021/10/28 01:26:12;;;;;;;;;15.00;15.00;;;;;14.71;62.78;101265.81;2076321;28;47434;-52
2021/10/28 01:27:13;;;;;;;;;18.00;17.00;;;;;14.71;63.13;101267.59;2082988;28;46723;-53
2021/10/28 01:28:15;;;;;;;;;14.33;13.33;;;;;14.71;63.13;101272.94;2085021;28;47231;-53
2021/10/28 01:29:16;;;;;;;;;15.50;15.25;;;;;14.70;62.67;101266.72;2083013;28;46956;-53
2021/10/28 01:30:16;;;;;;;;;16.50;16.50;;;;;14.69;62.73;101264.97;2083035;28;48336;-50
2021/10/28 01:31:21;;;;;;;;;13.33;13.33;;;;;14.69;62.72;101267.66;2078821;28;48529;-53
2021/10/28 01:32:21;;;;;;;;;13.00;13.00;;;;;14.68;63.03;101268.56;2082654;28;47529;-52
2021/10/28 01:33:22;;;;;;;;;15.00;15.00;;;;;14.69;63.24;101266.78;2082920;28;47313;-52
2021/10/28 01:34:23;;;;;;;;;17.00;16.40;;;;;14.68;63.02;101265.03;2085653;28;47377;-51
2021/10/28 01:35:24;;;;;;;;;15.33;14.33;;;;;14.66;63.12;101259.75;2099730;28;45326;-50
2021/10/28 01:36:26;;;;;;;;;15.67;15.67;;;;;14.66;63.17;101267.75;2085277;28;46946;-51
2021/10/28 01:37:27;;;;;;;;;13.20;13.20;;;;;14.66;62.88;101258.88;2082782;28;47511;-53
2021/10/28 01:38:28;;;;;;;;;18.75;18.75;;;;;14.64;63.08;101258.91;2076462;28;47199;-51
2021/10/28 01:39:29;;;;;;;;;18.20;17.20;;;;;14.65;62.77;101258.00;2073864;28;47600;-52
2021/10/28 01:40:30;;;;;;;;;15.20;15.20;;;;;14.63;63.14;101248.28;2080607;28;47153;-51
2021/10/28 01:41:30;;;;;;;;;16.00;14.67;;;;;14.64;62.92;101252.69;2091166;28;47170;-51
2021/10/28 01:42:31;;;;;;;;;15.33;14.67;;;;;14.63;62.85;101253.63;2091455;28;47273;-50
2021/10/28 01:43:34;;;;;;;;;14.00;14.00;;;;;14.62;63.07;101250.09;2090753;28;48380;-49
2021/10/28 01:44:34;;;;;;;;;16.50;15.50;;;;;14.62;63.18;101249.22;2091363;28;48337;-52
2021/10/28 01:45:35;;;;;;;;;15.67;14.00;;;;;14.59;63.01;101250.16;2089967;28;47442;-52
2021/10/28 01:46:36;;;;;;;;;19.60;19.60;;;;;14.60;63.21;101248.34;2091230;28;47588;-50
2021/10/28 01:47:36;;;;;;;;;15.00;15.00;;;;;14.57;63.08;101245.78;2084391;28;48185;-49
2021/10/28 01:48:39;;;;;;;;;15.67;15.67;;;;;14.57;63.18;101243.97;2083053;28;47754;-52
2021/10/28 01:49:40;;;;;;;;;14.00;13.40;;;;;14.57;63.27;101253.78;2082778;28;48137;-52
2021/10/28 01:50:41;;;;;;;;;15.00;14.75;;;;;14.57;63.18;101248.44;2082837;28;47359;-54
2021/10/28 01:51:43;;;;;;;;;17.25;15.75;;;;;14.55;62.98;101245.81;2082735;28;47266;-52
2021/10/28 01:52:43;;;;;;;;;16.20;16.20;;;;;14.55;63.13;101248.50;2074255;28;47652;-49
2021/10/28 01:53:44;;;;;;;;;16.75;15.75;;;;;14.54;63.28;101246.75;2068241;28;46876;-52
2021/10/28 01:54:45;;;;;;;;;16.50;16.25;;;;;14.53;63.22;101253.00;2082558;28;45546;-51
2021/10/28 01:55:46;;;;;;;;;13.67;13.67;;;;;14.53;63.01;101246.81;2084917;28;47228;-53
2021/10/28 01:56:47;;;;;;;;;16.75;16.50;;;;;14.52;63.10;101243.25;2082930;28;46109;-53
2021/10/28 01:57:48;;;;;;;;;16.67;16.67;;;;;14.52;63.26;101251.25;2082647;28;47121;-53
2021/10/28 01:58:51;;;;;;;;;15.50;15.50;;;;;14.51;63.01;101244.19;2082766;28;45664;-52
2021/10/28 01:59:52;;;;;;;;;17.25;16.00;;;;;14.50;62.93;101247.78;2073952;28;46444;-49
2021/10/28 02:00:52;;;;;;;;;15.50;15.50;;;;;14.50;62.95;101255.78;2082277;28;48097;-52
2021/10/28 02:01:53;;;;;;;;;14.67;14.67;;;;;14.50;63.28;101246.91;2089034;28;47976;-50
2021/10/28 02:02:54;;;;;;;;;16.50;16.25;;;;;14.49;63.40;101247.81;2085779;28;47115;-50
2021/10/28 02:03:55;;;;;;;;;14.50;14.00;;;;;14.47;63.23;101242.50;2086936;28;47230;-52
2021/10/28 02:04:55;;;;;;;;;15.25;15.25;;;;;14.47;63.05;101244.28;2097639;28;48072;-53
2021/10/28 02:05:56;;;;;;;;;13.25;12.50;;;;;14.45;62.73;101240.78;2083958;28;47203;-53
2021/10/28 02:06:57;;;;;;;;;14.75;14.25;;;;;14.44;62.98;101239.91;2075483;28;47041;-53
2021/10/28 02:07:57;;;;;;;;;16.50;16.50;;;;;14.43;62.96;101239.00;2075063;28;47302;-51
2021/10/28 02:08:57;;;;;;;;;17.75;15.00;;;;;14.42;63.09;101234.59;2084377;28;48120;-54
2021/10/28 02:09:58;;;;;;;;;15.50;15.50;;;;;14.42;63.38;101234.59;2083728;28;47430;-54
2021/10/28 02:10:58;;;;;;;;;17.00;16.00;;;;;14.41;63.19;101231.97;2089780;28;48168;-52
2021/10/28 02:12:00;;;;;;;;;16.75;15.50;;;;;14.40;63.48;101230.22;2085723;28;48417;-52
2021/10/28 02:13:01;;;;;;;;;16.00;14.80;;;;;14.40;62.87;101235.56;2084214;28;46570;-51
2021/10/28 02:14:02;;;;;;;;;15.20;14.80;;;;;14.38;62.97;101234.75;2075145;28;47630;-53
2021/10/28 02:15:06;;;;;;;;;15.75;15.75;;;;;14.38;63.18;101221.41;2072331;28;48473;-53
2021/10/28 02:16:07;;;;;;;;;17.20;14.80;;;;;14.37;63.30;101222.31;2084197;28;48086;-53
2021/10/28 02:17:07;;;;;;;;;15.75;15.50;;;;;14.36;62.92;101223.22;2092413;28;48105;-51
2021/10/28 02:18:09;;;;;;;;;11.75;11.75;;;;;14.36;63.02;101223.22;2088492;28;48197;-50
2021/10/28 02:19:10;;;;;;;;;14.40;14.40;;;;;14.34;63.03;101223.25;2084128;28;47246;-51
2021/10/28 02:20:12;;;;;;;;;13.75;13.75;;;;;14.34;63.13;101223.25;2084282;28;47092;-50
2021/10/28 02:21:13;;;;;;;;;12.80;12.00;;;;;14.34;63.33;101219.72;2083723;28;47292;-52
2021/10/28 02:22:13;;;;;;;;;13.75;13.75;;;;;14.31;63.06;101220.69;2086403;28;48127;-53
2021/10/28 02:23:14;;;;;;;;;12.25;12.25;;;;;14.32;63.54;101218.88;2085833;28;47877;-54
2021/10/28 02:24:14;;;;;;;;;16.50;16.50;;;;;14.31;63.37;101218.00;2084213;28;48202;-51
2021/10/28 02:25:16;;;;;;;;;16.00;13.25;;;;;14.30;63.46;101215.38;2083919;28;47975;-52
2021/10/28 02:26:17;;;;;;;;;16.60;14.20;;;;;14.30;63.42;101218.06;2084110;28;47373;-53
2021/10/28 02:27:18;;;;;;;;;16.00;14.00;;;;;14.29;63.07;101205.63;2083907;28;47180;-52
2021/10/28 02:28:18;;;;;;;;;15.40;14.60;;;;;14.28;63.35;101207.44;2084080;28;48924;-53
2021/10/28 02:29:19;;;;;;;;;16.00;16.00;;;;;14.28;63.43;101209.22;2083922;28;48296;-51
2021/10/28 02:30:19;;;;;;;;;16.75;16.00;;;;;14.27;63.08;101212.81;2084325;28;47154;-52
2021/10/28 02:31:20;;;;;;;;;14.25;13.00;;;;;14.27;63.09;101210.16;2083852;28;47245;-52
2021/10/28 02:32:21;;;;;;;;;12.25;11.50;;;;;14.24;63.11;101205.78;2083794;28;47810;-53
2021/10/28 02:33:21;;;;;;;;;11.25;11.25;;;;;14.25;63.16;101212.00;2075183;28;45107;-53
2021/10/28 02:34:22;;;;;;;;;15.75;15.75;;;;;14.23;63.44;101200.44;2076429;28;47143;-51
2021/10/28 02:35:23;;;;;;;;;16.25;14.50;;;;;14.23;63.47;101204.03;2092258;28;47076;-54
2021/10/28 02:36:23;;;;;;;;;15.00;15.00;;;;;14.21;63.28;101194.28;2092093;28;47795;-52
2021/10/28 02:37:24;;;;;;;;;15.00;14.25;;;;;14.21;63.39;101192.50;2092178;28;48278;-48
2021/10/28 02:38:24;;;;;;;;;13.25;13.25;;;;;14.21;63.15;101199.63;2092209;28;46138;-48
2021/10/28 02:39:25;;;;;;;;;11.00;11.00;;;;;14.21;63.44;101202.28;2092031;28;47484;-52
2021/10/28 02:40:28;;;;;;;;;14.50;14.00;;;;;14.19;63.39;101196.13;2082832;28;47426;-53
2021/10/28 02:41:28;;;;;;;;;17.40;16.40;;;;;14.19;63.33;101193.47;2083334;28;47473;-54
2021/10/28 02:42:29;;;;;;;;;14.50;13.50;;;;;14.18;63.26;101189.91;2092262;28;48445;-48
2021/10/28 02:43:30;;;;;;;;;14.50;13.00;;;;;14.19;63.44;101185.47;2080938;28;47997;-50
2021/10/28 02:44:31;;;;;;;;;13.25;13.25;;;;;14.17;63.31;101181.97;2083335;28;47904;-49
2021/10/28 02:45:31;;;;;;;;;15.25;11.75;;;;;14.17;63.47;101190.84;2091967;28;47408;-49
2021/10/28 02:46:32;;;;;;;;;13.25;11.75;;;;;14.16;63.45;101188.22;2087545;28;47247;-52
2021/10/28 02:47:32;;;;;;;;;14.25;14.25;;;;;14.15;63.54;101179.34;2087386;28;47663;-51
2021/10/28 02:48:33;;;;;;;;;13.75;11.25;;;;;14.14;63.25;101174.94;2083578;28;47290;-51
2021/10/28 02:49:34;;;;;;;;;13.25;13.25;;;;;14.13;63.21;101187.41;2083232;28;47484;-49
2021/10/28 02:50:35;;;;;;;;;18.00;15.60;;;;;14.12;63.18;101182.97;2085485;28;48188;-51
2021/10/28 02:51:35;;;;;;;;;11.75;11.75;;;;;14.11;63.60;101181.22;2091844;28;47407;-48
2021/10/28 02:52:36;;;;;;;;;17.00;14.00;;;;;14.11;63.43;101185.69;2092159;28;48077;-54
2021/10/28 02:53:36;;;;;;;;;17.50;16.25;;;;;14.10;63.61;101170.56;2091843;28;48405;-49
2021/10/28 02:54:38;;;;;;;;;15.50;15.00;;;;;14.08;63.42;101180.44;2092239;28;48139;-47
2021/10/28 02:55:38;;;;;;;;;14.80;14.80;;;;;14.07;63.27;101176.00;2092172;28;47156;-49
2021/10/28 02:56:39;;;;;;;;;15.25;13.75;;;;;14.06;63.78;101182.25;2092152;28;46056;-48
2021/10/28 02:57:41;;;;;;;;;14.50;14.50;;;;;14.05;63.46;101177.84;2092101;28;46175;-48
2021/10/28 02:58:42;;;;;;;;;16.80;15.80;;;;;14.04;63.59;101176.97;2092070;28;47283;-48
2021/10/28 02:59:42;;;;;;;;;17.00;16.25;;;;;14.04;63.50;101184.09;2092118;28;48199;-52
2021/10/28 03:00:43;;;;;;;;;13.50;12.00;;;;;14.03;63.28;101182.34;2092077;28;48250;-48
2021/10/28 03:01:47;;;;;;;;;18.60;17.40;;;;;14.02;63.26;101185.94;2092043;28;48317;-49
2021/10/28 03:02:48;;;;;;;;;14.20;13.80;;;;;14.00;63.53;101180.66;2083092;28;48255;-58
2021/10/28 03:03:48;;;;;;;;;14.50;14.50;;;;;13.99;63.54;101175.38;2083086;28;48046;-50
2021/10/28 03:04:49;;;;;;;;;13.50;13.00;;;;;13.98;63.30;101181.63;2100346;28;47068;-50
2021/10/28 03:05:49;;;;;;;;;15.25;13.50;;;;;13.97;63.29;101180.72;2092161;28;47150;-49
2021/10/28 03:06:51;;;;;;;;;15.75;15.25;;;;;13.97;63.34;101185.19;2092152;28;47371;-52
2021/10/28 03:07:54;;;;;;;;;16.60;16.60;;;;;13.96;63.27;101178.09;2092066;28;46149;-51
2021/10/28 03:08:54;;;;;;;;;14.40;14.40;;;;;13.94;63.28;101180.81;2091803;28;47767;-51
2021/10/28 03:09:54;;;;;;;;;15.75;15.75;;;;;13.93;63.50;101178.19;2091968;28;47191;-49
2021/10/28 03:10:55;;;;;;;;;15.25;15.25;;;;;13.93;63.37;101179.06;2086565;28;48240;-54
2021/10/28 03:11:58;;;;;;;;;15.00;15.00;;;;;13.92;63.34;101173.78;2079551;28;47297;-51
2021/10/28 03:12:59;;;;;;;;;17.00;16.40;;;;;13.90;63.44;101171.16;2080693;28;47186;-52
2021/10/28 03:14:00;;;;;;;;;14.00;13.50;;;;;13.89;63.32;101169.41;2088216;28;47170;-50
2021/10/28 03:15:03;;;;;;;;;17.00;17.00;;;;;13.88;63.24;101174.78;2087112;28;47174;-53
2021/10/28 03:16:28;;;;;;;;;14.00;14.00;;;;;13.86;63.55;101174.84;2066718;28;45590;-52
2021/10/28 03:18:07;;;;;;;;;16.20;15.20;;;;;13.84;63.54;101172.19;2073141;28;48577;-52
2021/10/28 03:25:42;;;;;;;;;14.40;13.80;;;;;13.77;63.71;101159.09;2083590;28;47302;-49
2021/10/28 03:26:42;;;;;;;;;15.80;14.40;;;;;13.77;63.45;101164.41;2084093;28;47291;-51
2021/10/28 03:27:44;;;;;;;;;16.25;14.50;;;;;13.76;63.85;101160.88;2083483;28;47486;-52
2021/10/28 03:28:44;;;;;;;;;15.20;14.80;;;;;13.76;63.71;101160.00;2083666;28;47575;-53
2021/10/28 03:29:44;;;;;;;;;15.25;15.25;;;;;13.76;63.80;101160.00;2083370;28;47356;-51
2021/10/28 03:30:49;;;;;;;;;15.00;15.00;;;;;13.76;63.74;101162.66;2083802;28;48265;-53
2021/10/28 03:31:49;;;;;;;;;16.40;15.40;;;;;13.74;63.60;101159.19;2083395;28;47332;-51
2021/10/28 03:32:50;;;;;;;;;15.50;14.00;;;;;13.75;63.71;101161.78;2078408;28;47148;-53
2021/10/28 03:33:51;;;;;;;;;16.75;16.25;;;;;13.74;63.74;101151.19;2082788;28;47261;-51
2021/10/28 03:34:52;;;;;;;;;16.00;15.33;;;;;13.73;63.52;101149.44;2097261;28;46870;-53
2021/10/28 03:35:53;;;;;;;;;18.20;16.00;;;;;13.73;63.65;101150.31;2095799;28;47227;-52
2021/10/28 03:38:27;;;;;;;;;13.75;13.75;;;;;13.71;63.72;101156.56;2083256;28;45585;-52
2021/10/28 03:43:22;;;;;;;;;13.00;12.40;;;;;13.68;63.58;101144.19;2085915;28;47429;-52
2021/10/28 03:55:48;;;;;;;;;18.40;15.40;;;;;13.62;63.95;101132.84;2091656;28;47116;-51
2021/10/28 03:59:40;;;;;;;;;16.40;16.40;;;;;13.60;63.83;101132.00;2087218;28;47223;-52
2021/10/28 04:17:43;;;;;;;;;15.00;15.00;;;;;13.55;64.17;101130.31;2088082;28;46188;-52
2021/10/28 04:19:13;;;;;;;;;13.40;13.00;;;;;13.54;64.10;101120.59;2090691;28;47385;-49
2021/10/28 04:29:14;;;;;;;;;15.00;15.00;;;;;13.54;64.32;101125.03;2091495;28;47207;-51
2021/10/28 04:30:24;;;;;;;;;17.25;15.25;;;;;13.52;64.12;101124.22;2091579;28;47372;-50
2021/10/28 04:31:28;;;;;;;;;15.60;14.60;;;;;13.52;64.23;101122.41;2091615;28;47392;-53
2021/10/28 04:32:29;;;;;;;;;14.60;14.00;;;;;13.51;64.33;101128.66;2091477;28;47203;-51
2021/10/28 04:33:30;;;;;;;;;16.00;15.60;;;;;13.50;63.95;101123.38;2091595;28;47473;-52
2021/10/28 04:34:30;;;;;;;;;14.00;13.50;;;;;13.50;64.26;101123.38;2091390;28;47153;-52
2021/10/28 04:35:31;;;;;;;;;15.75;14.00;;;;;13.49;64.04;101132.31;2100087;28;48302;-53
2021/10/28 04:36:32;;;;;;;;;15.75;15.75;;;;;13.49;64.06;101127.84;2084169;28;48096;-53
2021/10/28 04:37:32;;;;;;;;;15.60;14.60;;;;;13.49;64.18;101129.63;2083292;28;45517;-53
2021/10/28 04:38:33;;;;;;;;;16.50;15.25;;;;;13.47;64.32;101127.00;2086105;28;47319;-52
2021/10/28 04:39:33;;;;;;;;;5.25;5.25;;;;;13.48;64.29;101127.88;2085352;28;47207;-51
2021/10/28 04:40:34;;;;;;;;;15.25;13.25;;;;;13.48;64.15;101126.09;2083408;28;46234;-52
2021/10/28 04:41:38;;;;;;;;;17.25;16.00;;;;;13.48;64.24;101125.22;2075939;28;48317;-58
2021/10/28 04:42:40;;;;;;;;;20.20;19.20;;;;;13.47;63.88;101124.34;2069530;28;48344;-50
2021/10/28 04:43:40;;;;;;;;;16.60;16.60;;;;;13.47;64.00;101120.81;2076248;28;47495;-53
2021/10/28 04:44:41;;;;;;;;;15.75;15.75;;;;;13.46;64.16;101127.91;2083185;28;47267;-52
2021/10/28 04:45:42;;;;;;;;;18.80;17.20;;;;;13.47;64.03;101129.69;2076630;28;47648;-52
2021/10/28 04:46:42;;;;;;;;;12.75;12.75;;;;;13.46;64.00;101121.69;2082625;28;47218;-47
2021/10/28 04:47:43;;;;;;;;;14.00;13.25;;;;;13.45;64.27;101126.16;2082309;28;47182;-51
2021/10/28 04:48:43;;;;;;;;;17.00;15.25;;;;;13.44;64.14;101127.06;2082504;28;47289;-51
2021/10/28 04:49:44;;;;;;;;;14.00;13.75;;;;;13.44;64.13;101123.53;2088026;28;47257;-49
2021/10/28 04:50:44;;;;;;;;;16.75;16.25;;;;;13.43;64.02;101124.44;2090280;28;47903;-52
2021/10/28 04:51:45;;;;;;;;;16.50;15.25;;;;;13.42;64.20;101128.91;2088938;28;48120;-53
2021/10/28 04:52:45;;;;;;;;;15.75;15.75;;;;;13.42;64.00;101123.56;2082680;28;48302;-49
2021/10/28 04:53:46;;;;;;;;;14.50;14.00;;;;;13.43;64.12;101127.13;2081994;28;48042;-52
2021/10/28 04:54:46;;;;;;;;;16.50;14.25;;;;;13.42;64.11;101120.03;2088246;28;48374;-51
2021/10/28 04:55:46;;;;;;;;;15.50;15.50;;;;;13.41;64.30;101121.84;2082181;28;47290;-52
2021/10/28 04:56:47;;;;;;;;;18.50;17.25;;;;;13.41;64.07;101132.50;2082570;28;47364;-51
2021/10/28 04:57:48;;;;;;;;;14.25;14.25;;;;;13.41;64.29;101135.16;2091236;28;46074;-50
2021/10/28 04:58:48;;;;;;;;;17.50;17.50;;;;;13.41;64.14;101126.28;2074338;28;48261;-53
2021/10/28 04:59:49;;;;;;;;;21.50;20.50;;;;;13.40;63.97;101133.41;2073948;28;45764;-51
2021/10/28 05:00:51;;;;;;;;;15.25;15.00;;;;;13.40;64.07;101130.75;2082480;28;46723;-52
2021/10/28 05:01:51;;;;;;;;;16.60;16.60;;;;;13.39;64.06;101126.34;2073071;28;48148;-49
2021/10/28 05:02:52;;;;;;;;;15.75;15.50;;;;;13.39;64.30;101129.00;2072700;28;48372;-51
2021/10/28 05:03:52;;;;;;;;;20.50;18.25;;;;;13.39;64.04;101121.00;2087622;28;48273;-50
2021/10/28 05:04:53;;;;;;;;;18.25;16.50;;;;;13.39;64.22;101126.34;2099904;28;47485;-50
2021/10/28 05:05:53;;;;;;;;;17.00;16.00;;;;;13.39;63.97;101128.13;2085419;28;45549;-51
2021/10/28 05:06:54;;;;;;;;;22.25;20.50;;;;;13.39;64.23;101129.00;2084177;28;47327;-51
2021/10/28 05:07:54;;;;;;;;;26.00;26.00;;;;;13.38;64.32;101124.59;2082709;28;48043;-50
2021/10/28 05:08:54;;;;;;;;;29.50;25.75;;;;;13.40;63.91;101129.88;2082967;28;48151;-51
2021/10/28 05:09:55;;;;;;;;;25.75;25.25;;;;;13.39;64.11;101126.34;2082740;28;47319;-51
2021/10/28 05:10:55;;;;;;;;;18.25;18.25;;;;;13.40;64.06;101124.53;2085706;28;47700;-50
2021/10/28 05:11:56;;;;;;;;;17.50;17.25;;;;;13.38;64.08;101126.38;2086924;28;47274;-51
2021/10/28 05:12:57;;;;;;;;;20.00;17.75;;;;;13.39;63.96;101133.47;2089860;28;48335;-51
2021/10/28 05:13:58;;;;;;;;;17.25;17.25;;;;;13.39;64.16;101131.66;2083215;28;47501;-50
2021/10/28 05:14:58;;;;;;;;;16.75;16.25;;;;;13.38;64.17;101121.91;2082861;28;47363;-48
2021/10/28 05:15:59;;;;;;;;;17.50;17.50;;;;;13.38;64.18;101121.91;2082610;28;47279;-47
2021/10/28 05:17:00;;;;;;;;;15.60;15.00;;;;;13.37;64.24;101122.84;2088356;28;47382;-51
2021/10/28 05:18:01;;;;;;;;;17.50;16.25;;;;;13.37;64.01;101120.16;2085149;28;48713;-50
2021/10/28 05:19:02;;;;;;;;;21.00;21.00;;;;;13.38;64.13;101123.72;2082572;28;48420;-52
2021/10/28 05:20:03;;;;;;;;;21.60;20.60;;;;;13.37;64.19;101121.97;2082659;28;46299;-52
2021/10/28 05:21:04;;;;;;;;;20.40;17.20;;;;;13.37;63.94;101116.63;2082369;28;47500;-52
2021/10/28 05:22:06;;;;;;;;;21.50;18.75;;;;;13.36;63.95;101120.22;2089394;28;47212;-48
2021/10/28 05:23:07;;;;;;;;;16.80;16.20;;;;;13.36;63.97;101123.75;2082682;28;47484;-50
2021/10/28 05:24:08;;;;;;;;;18.80;17.80;;;;;13.35;63.94;101114.00;2083043;28;47206;-52
2021/10/28 05:25:08;;;;;;;;;18.00;17.00;;;;;13.35;64.13;101113.13;2080393;28;45442;-49
2021/10/28 05:26:09;;;;;;;;;20.50;19.50;;;;;13.35;64.14;101114.00;2082619;28;47393;-51
2021/10/28 05:27:10;;;;;;;;;18.50;17.25;;;;;13.35;64.05;101113.13;2090343;28;47238;-48
2021/10/28 05:28:10;;;;;;;;;22.50;20.25;;;;;13.35;63.96;101115.81;2085932;28;47087;-50
2021/10/28 05:29:11;;;;;;;;;13.75;13.75;;;;;13.34;64.14;101112.28;2082687;28;47222;-53
2021/10/28 05:30:12;;;;;;;;;19.50;19.50;;;;;13.34;64.34;101114.94;2074316;28;47015;-51
2021/10/28 05:31:12;;;;;;;;;23.00;22.20;;;;;13.34;64.32;101108.69;2077311;28;47745;-51
2021/10/28 05:32:13;;;;;;;;;24.25;23.00;;;;;13.34;64.37;101114.94;2091453;28;47267;-52
2021/10/28 05:33:13;;;;;;;;;16.25;16.25;;;;;13.36;64.48;101117.56;2084123;28;47373;-48
2021/10/28 05:34:14;;;;;;;;;18.00;18.00;;;;;13.35;64.32;101116.69;2083060;28;47363;-47
2021/10/28 05:35:14;;;;;;;;;18.25;18.25;;;;;13.35;64.37;101116.69;2096550;28;48221;-48
2021/10/28 05:36:14;;;;;;;;;21.25;17.00;;;;;13.37;64.29;101119.31;2082963;28;47188;-50
2021/10/28 05:37:16;;;;;;;;;29.00;23.00;;;;;13.37;64.53;101125.50;2083095;28;48412;-49
2021/10/28 05:38:17;;;;;;;;;24.20;22.00;;;;;13.37;64.28;101128.16;2085151;28;48370;-52
2021/10/28 05:39:17;;;;;;;;;22.50;22.50;;;;;13.37;64.19;101124.63;2088564;28;48122;-54
2021/10/28 05:40:19;;;;;;;;;19.50;19.50;;;;;13.36;64.23;101126.41;2075573;28;48342;-51
2021/10/28 05:41:20;;;;;;;;;20.60;20.20;;;;;13.36;64.38;101123.75;2082398;28;47365;-50
2021/10/28 05:42:20;;;;;;;;;20.50;19.00;;;;;13.36;64.12;101126.41;2083037;28;47128;-51
2021/10/28 05:43:21;;;;;;;;;19.00;19.00;;;;;13.36;64.18;101126.41;2083173;28;47423;-52
2021/10/28 05:44:21;;;;;;;;;20.75;19.00;;;;;13.37;64.23;101129.97;2084368;28;48152;-49